FIE745 UDYZ-LOWI
Flight info
| Callsign | FIE745 |
|---|---|
| Flight time | N/A |
| Altitude | 34000 |
| Route | INDUR UB374 ERZ UL746 GOKPA UM10 TIVUG/N0447F360 UL852 NEGEM Q6 ERDOM Y520 UTEKA DCT TUVAR DCT PODET DCT DEGUM |
| Aircraft | A320/M-SDE3FGHIRWY/LB1 |
Departure
| Time | 2026-05-08 07:42 |
|---|---|
| Airport | Zvartnots International Airport (UDYZ) |
Arrival
| Time | N/A |
|---|---|
| Airport | Innsbruck Airport (LOWI) |
| Time | Latitude | Longitude | Altitude | Speed | Heading |
|---|---|---|---|---|---|
| 2026-05-08 07:27 | 40.15053 | 44.40539 | 2838 ft | 0 kts | 359° |
| 2026-05-08 07:34 | 40.15052 | 44.40539 | 2837 ft | 1 kts | 360° |
| 2026-05-08 07:34 | 40.15035 | 44.40538 | 2836 ft | 3 kts | 7° |
| 2026-05-08 07:35 | 40.15016 | 44.40533 | 2837 ft | 3 kts | 21° |
| 2026-05-08 07:35 | 40.14999 | 44.40521 | 2838 ft | 3 kts | 45° |
| 2026-05-08 07:35 | 40.14989 | 44.40503 | 2837 ft | 2 kts | 84° |
| 2026-05-08 07:35 | 40.14989 | 44.40498 | 2837 ft | 0 kts | 90° |
| 2026-05-08 07:37 | 40.14989 | 44.40524 | 2835 ft | 5 kts | 90° |
| 2026-05-08 07:38 | 40.14989 | 44.40588 | 2837 ft | 9 kts | 90° |
| 2026-05-08 07:38 | 40.14989 | 44.40687 | 2837 ft | 13 kts | 88° |
| 2026-05-08 07:38 | 40.14991 | 44.40820 | 2837 ft | 16 kts | 90° |
| 2026-05-08 07:38 | 40.14993 | 44.40978 | 2837 ft | 17 kts | 89° |
| 2026-05-08 07:39 | 40.14993 | 44.41134 | 2837 ft | 17 kts | 89° |
| 2026-05-08 07:39 | 40.14994 | 44.41283 | 2837 ft | 16 kts | 89° |
| 2026-05-08 07:39 | 40.14995 | 44.41428 | 2838 ft | 15 kts | 89° |
| 2026-05-08 07:39 | 40.14996 | 44.41566 | 2838 ft | 15 kts | 89° |
| 2026-05-08 07:40 | 40.14982 | 44.41698 | 2837 ft | 15 kts | 123° |
| 2026-05-08 07:40 | 40.14903 | 44.41774 | 2839 ft | 14 kts | 147° |
| 2026-05-08 07:40 | 40.14824 | 44.41831 | 2843 ft | 12 kts | 159° |
| 2026-05-08 07:40 | 40.14756 | 44.41831 | 2844 ft | 9 kts | 198° |
| 2026-05-08 07:41 | 40.14746 | 44.41645 | 2842 ft | 49 kts | 271° |
| 2026-05-08 07:41 | 40.14739 | 44.40905 | 2837 ft | 110 kts | 269° |
| 2026-05-08 07:41 | 40.14738 | 44.39691 | 2833 ft | 155 kts | 270° |
| 2026-05-08 07:41 | 40.14769 | 44.38131 | 3063 ft | 175 kts | 272° |
| 2026-05-08 07:42 | 40.14818 | 44.36618 | 3856 ft | 167 kts | 274° |
| 2026-05-08 07:42 | 40.14865 | 44.35079 | 4453 ft | 171 kts | 269° |
| 2026-05-08 07:42 | 40.14799 | 44.33462 | 4871 ft | 188 kts | 264° |
| 2026-05-08 07:42 | 40.14683 | 44.31661 | 5029 ft | 209 kts | 264° |
| 2026-05-08 07:43 | 40.14553 | 44.29669 | 5216 ft | 231 kts | 265° |
| 2026-05-08 07:43 | 40.14427 | 44.27433 | 5376 ft | 260 kts | 265° |
| 2026-05-08 07:43 | 40.14300 | 44.25014 | 5967 ft | 270 kts | 266° |
| 2026-05-08 07:43 | 40.14177 | 44.22548 | 6709 ft | 274 kts | 266° |
| 2026-05-08 07:44 | 40.14059 | 44.20050 | 7449 ft | 277 kts | 266° |
| 2026-05-08 07:44 | 40.13947 | 44.17520 | 8166 ft | 281 kts | 266° |
| 2026-05-08 07:44 | 40.13833 | 44.14959 | 8884 ft | 284 kts | 266° |
| 2026-05-08 07:44 | 40.13718 | 44.12371 | 9570 ft | 287 kts | 266° |
| 2026-05-08 07:45 | 40.13599 | 44.09755 | 10204 ft | 292 kts | 266° |
| 2026-05-08 07:45 | 40.13468 | 44.06995 | 10387 ft | 315 kts | 266° |
| 2026-05-08 07:45 | 40.13323 | 44.04032 | 10502 ft | 338 kts | 266° |
| 2026-05-08 07:45 | 40.13179 | 44.00903 | 10846 ft | 349 kts | 266° |
| 2026-05-08 07:46 | 40.13042 | 43.97714 | 11424 ft | 354 kts | 267° |
| 2026-05-08 07:46 | 40.12893 | 43.94512 | 11990 ft | 354 kts | 266° |
| 2026-05-08 07:46 | 40.12740 | 43.91300 | 12534 ft | 355 kts | 266° |
| 2026-05-08 07:46 | 40.12592 | 43.88084 | 13034 ft | 352 kts | 266° |
| 2026-05-08 07:47 | 40.12437 | 43.84848 | 13507 ft | 359 kts | 266° |
| 2026-05-08 07:47 | 40.12283 | 43.81578 | 14059 ft | 362 kts | 266° |
| 2026-05-08 07:47 | 40.12128 | 43.78289 | 14596 ft | 364 kts | 266° |
| 2026-05-08 07:47 | 40.11970 | 43.74973 | 15115 ft | 366 kts | 266° |
| 2026-05-08 07:48 | 40.11814 | 43.71637 | 15623 ft | 371 kts | 265° |
| 2026-05-08 07:48 | 40.11657 | 43.68284 | 16137 ft | 369 kts | 266° |
| 2026-05-08 07:48 | 40.11491 | 43.64922 | 16569 ft | 374 kts | 265° |
| 2026-05-08 07:48 | 40.11313 | 43.61528 | 17070 ft | 376 kts | 265° |
| 2026-05-08 07:49 | 40.11124 | 43.58116 | 17551 ft | 378 kts | 265° |
| 2026-05-08 07:49 | 40.10933 | 43.54684 | 18028 ft | 379 kts | 265° |
| 2026-05-08 07:49 | 40.10743 | 43.51237 | 18491 ft | 382 kts | 265° |
| 2026-05-08 07:49 | 40.10555 | 43.47768 | 18925 ft | 385 kts | 265° |
| 2026-05-08 07:50 | 40.10369 | 43.44272 | 19369 ft | 387 kts | 265° |
| 2026-05-08 07:50 | 40.10180 | 43.40753 | 19813 ft | 389 kts | 265° |
| 2026-05-08 07:50 | 40.09986 | 43.37210 | 20207 ft | 393 kts | 265° |
| 2026-05-08 07:50 | 40.09792 | 43.33641 | 20621 ft | 395 kts | 265° |
| 2026-05-08 07:51 | 40.09595 | 43.30047 | 21026 ft | 398 kts | 265° |
| 2026-05-08 07:51 | 40.09393 | 43.26429 | 21390 ft | 401 kts | 265° |
| 2026-05-08 07:51 | 40.09185 | 43.22782 | 21755 ft | 404 kts | 265° |
| 2026-05-08 07:51 | 40.08974 | 43.19112 | 22120 ft | 406 kts | 265° |
| 2026-05-08 07:52 | 40.08764 | 43.15424 | 22475 ft | 408 kts | 265° |
| 2026-05-08 07:52 | 40.08553 | 43.11717 | 22817 ft | 411 kts | 265° |
| 2026-05-08 07:52 | 40.08343 | 43.08034 | 23154 ft | 413 kts | 265° |
| 2026-05-08 07:52 | 40.08127 | 43.04280 | 23494 ft | 416 kts | 265° |
| 2026-05-08 07:53 | 40.07903 | 43.00456 | 23818 ft | 418 kts | 265° |
| 2026-05-08 07:53 | 40.07683 | 42.96715 | 24137 ft | 420 kts | 265° |
| 2026-05-08 07:53 | 40.07458 | 42.92904 | 24461 ft | 422 kts | 265° |
| 2026-05-08 07:53 | 40.07233 | 42.89073 | 24774 ft | 424 kts | 265° |
| 2026-05-08 07:54 | 40.07006 | 42.85227 | 25075 ft | 426 kts | 265° |
| 2026-05-08 07:54 | 40.06778 | 42.81364 | 25359 ft | 428 kts | 265° |
| 2026-05-08 07:54 | 40.06547 | 42.77485 | 25662 ft | 430 kts | 265° |
| 2026-05-08 07:54 | 40.06312 | 42.73587 | 25962 ft | 431 kts | 265° |
| 2026-05-08 07:55 | 40.06076 | 42.69675 | 26265 ft | 433 kts | 265° |
| 2026-05-08 07:55 | 40.05837 | 42.65751 | 26564 ft | 435 kts | 266° |
| 2026-05-08 07:55 | 40.05597 | 42.61806 | 26883 ft | 436 kts | 265° |
| 2026-05-08 07:55 | 40.05356 | 42.57873 | 27298 ft | 435 kts | 265° |
| 2026-05-08 07:56 | 40.05113 | 42.53952 | 27713 ft | 433 kts | 266° |
| 2026-05-08 07:56 | 40.04868 | 42.50035 | 28135 ft | 432 kts | 265° |
| 2026-05-08 07:56 | 40.04620 | 42.46140 | 28541 ft | 430 kts | 265° |
| 2026-05-08 07:56 | 40.04373 | 42.42253 | 28941 ft | 429 kts | 266° |
| 2026-05-08 07:57 | 40.04121 | 42.38384 | 29353 ft | 428 kts | 265° |
| 2026-05-08 07:57 | 40.03861 | 42.34520 | 29737 ft | 427 kts | 265° |
| 2026-05-08 07:57 | 40.03600 | 42.30675 | 30126 ft | 425 kts | 265° |
| 2026-05-08 07:57 | 40.03335 | 42.26839 | 30522 ft | 424 kts | 265° |
| 2026-05-08 07:58 | 40.03065 | 42.23011 | 30884 ft | 423 kts | 265° |
| 2026-05-08 07:58 | 40.02797 | 42.19195 | 31254 ft | 423 kts | 265° |
| 2026-05-08 07:58 | 40.02528 | 42.15381 | 31608 ft | 422 kts | 265° |
| 2026-05-08 07:58 | 40.02260 | 42.11576 | 31959 ft | 421 kts | 265° |
| 2026-05-08 07:59 | 40.01993 | 42.07775 | 32307 ft | 420 kts | 265° |
| 2026-05-08 07:59 | 40.01724 | 42.03985 | 32633 ft | 420 kts | 265° |
| 2026-05-08 07:59 | 40.01457 | 42.00189 | 32959 ft | 420 kts | 265° |
| 2026-05-08 07:59 | 40.01189 | 41.96402 | 33292 ft | 419 kts | 265° |
| 2026-05-08 08:00 | 40.00917 | 41.92621 | 33608 ft | 419 kts | 265° |
| 2026-05-08 08:00 | 40.00644 | 41.88835 | 33918 ft | 418 kts | 265° |
| 2026-05-08 08:00 | 40.00371 | 41.85059 | 34183 ft | 419 kts | 265° |
| 2026-05-08 08:01 | 39.99818 | 41.77503 | 34249 ft | 419 kts | 264° |
| 2026-05-08 08:01 | 39.99267 | 41.69948 | 34247 ft | 418 kts | 265° |
| 2026-05-08 08:02 | 39.98561 | 41.60019 | 34251 ft | 417 kts | 265° |
| 2026-05-08 08:02 | 39.96373 | 41.29977 | 34242 ft | 416 kts | 265° |
| 2026-05-08 08:02 | 39.97364 | 41.15176 | 34268 ft | 416 kts | 292° |
| 2026-05-08 08:03 | 40.01662 | 41.01390 | 34243 ft | 416 kts | 291° |
| 2026-05-08 08:03 | 40.10357 | 40.72917 | 34248 ft | 421 kts | 292° |
| 2026-05-08 08:04 | 40.18918 | 40.44666 | 34235 ft | 421 kts | 292° |
| 2026-05-08 08:04 | 40.27467 | 40.16219 | 34242 ft | 419 kts | 292° |
| 2026-05-08 08:05 | 40.35895 | 39.87772 | 34237 ft | 419 kts | 292° |
| 2026-05-08 08:05 | 40.44263 | 39.59205 | 34218 ft | 419 kts | 292° |
| 2026-05-08 08:06 | 40.52555 | 39.30538 | 34227 ft | 420 kts | 293° |
| 2026-05-08 08:06 | 40.60781 | 39.01745 | 34228 ft | 420 kts | 293° |
| 2026-05-08 08:07 | 40.68871 | 38.72873 | 34230 ft | 420 kts | 293° |
| 2026-05-08 08:07 | 40.76823 | 38.43935 | 34227 ft | 419 kts | 293° |
| 2026-05-08 08:08 | 40.84685 | 38.14959 | 34215 ft | 419 kts | 293° |
| 2026-05-08 08:08 | 40.92495 | 37.85907 | 34196 ft | 419 kts | 292° |
| 2026-05-08 08:09 | 41.00186 | 37.56927 | 34267 ft | 417 kts | 292° |
| 2026-05-08 08:09 | 41.07814 | 37.27841 | 34120 ft | 418 kts | 292° |
| 2026-05-08 08:10 | 41.15348 | 36.98783 | 34288 ft | 414 kts | 292° |
| 2026-05-08 08:10 | 41.22813 | 36.69657 | 34096 ft | 421 kts | 292° |
| 2026-05-08 08:11 | 41.30225 | 36.40524 | 34268 ft | 412 kts | 292° |
| 2026-05-08 08:11 | 41.37641 | 36.11225 | 34112 ft | 422 kts | 291° |
| 2026-05-08 08:12 | 41.44987 | 35.81812 | 34252 ft | 413 kts | 291° |
| 2026-05-08 08:12 | 41.52202 | 35.52639 | 34176 ft | 421 kts | 291° |
| 2026-05-08 08:13 | 41.59361 | 35.23248 | 34198 ft | 411 kts | 291° |
| 2026-05-08 08:13 | 41.66401 | 34.94057 | 34257 ft | 414 kts | 291° |
| 2026-05-08 08:13 | 41.69871 | 34.79493 | 34143 ft | 413 kts | 291° |
| 2026-05-08 08:14 | 41.73348 | 34.64788 | 34158 ft | 407 kts | 291° |
| 2026-05-08 08:14 | 41.74563 | 34.49873 | 34292 ft | 415 kts | 274° |
| 2026-05-08 08:14 | 41.74552 | 34.34424 | 34257 ft | 417 kts | 274° |
| 2026-05-08 08:14 | 41.74508 | 34.18931 | 34133 ft | 418 kts | 274° |
| 2026-05-08 08:15 | 41.74414 | 34.03472 | 34145 ft | 413 kts | 274° |
| 2026-05-08 08:15 | 41.74304 | 33.88062 | 34291 ft | 411 kts | 274° |
| 2026-05-08 08:15 | 41.74175 | 33.72622 | 34295 ft | 413 kts | 274° |
| 2026-05-08 08:16 | 41.73873 | 33.41816 | 34124 ft | 414 kts | 273° |
| 2026-05-08 08:16 | 41.73471 | 33.11234 | 34279 ft | 406 kts | 273° |
| 2026-05-08 08:16 | 41.75010 | 32.96506 | 34258 ft | 401 kts | 292° |
| 2026-05-08 08:17 | 41.78469 | 32.82391 | 34119 ft | 401 kts | 291° |
| 2026-05-08 08:17 | 41.85296 | 32.54275 | 34191 ft | 392 kts | 291° |
| 2026-05-08 08:18 | 41.92016 | 32.26212 | 34158 ft | 398 kts | 290° |
| 2026-05-08 08:18 | 41.98703 | 31.98081 | 34077 ft | 393 kts | 290° |
| 2026-05-08 08:18 | 42.01979 | 31.84045 | 34222 ft | 391 kts | 290° |
| 2026-05-08 08:19 | 42.05261 | 31.69978 | 34225 ft | 394 kts | 290° |
| 2026-05-08 08:19 | 42.08545 | 31.55847 | 34096 ft | 400 kts | 290° |
| 2026-05-08 08:19 | 42.11825 | 31.41634 | 34008 ft | 399 kts | 290° |
| 2026-05-08 08:19 | 42.15099 | 31.27408 | 34116 ft | 394 kts | 289° |
| 2026-05-08 08:20 | 42.17247 | 31.17971 | 34014 ft | 400 kts | 289° |
| 2026-05-08 08:20 | 42.23726 | 30.89316 | 34233 ft | 398 kts | 288° |
| 2026-05-08 08:21 | 42.30194 | 30.60353 | 34049 ft | 408 kts | 287° |
| 2026-05-08 08:21 | 42.34459 | 30.41076 | 34225 ft | 401 kts | 287° |
| 2026-05-08 08:21 | 42.37637 | 30.26491 | 34197 ft | 407 kts | 287° |
| 2026-05-08 08:21 | 42.40830 | 30.11820 | 34062 ft | 410 kts | 287° |
| 2026-05-08 08:22 | 42.42972 | 30.01943 | 34202 ft | 407 kts | 287° |
| 2026-05-08 08:22 | 42.46126 | 29.87258 | 34052 ft | 410 kts | 286° |
| 2026-05-08 08:22 | 42.48920 | 29.72449 | 33991 ft | 407 kts | 284° |
| 2026-05-08 08:23 | 42.54305 | 29.42915 | 34179 ft | 401 kts | 284° |
| 2026-05-08 08:23 | 42.59630 | 29.13438 | 34099 ft | 405 kts | 284° |
| 2026-05-08 08:24 | 42.64791 | 28.84320 | 34014 ft | 396 kts | 284° |
| 2026-05-08 08:24 | 42.67354 | 28.69769 | 34145 ft | 391 kts | 284° |
| 2026-05-08 08:24 | 42.69892 | 28.55255 | 34196 ft | 393 kts | 284° |
| 2026-05-08 08:25 | 42.74879 | 28.26252 | 34024 ft | 397 kts | 284° |
| 2026-05-08 08:25 | 42.79781 | 27.97279 | 34125 ft | 387 kts | 284° |
| 2026-05-08 08:26 | 42.84590 | 27.68462 | 34138 ft | 391 kts | 283° |
| 2026-05-08 08:26 | 42.86964 | 27.53979 | 34001 ft | 395 kts | 283° |
| 2026-05-08 08:26 | 42.89316 | 27.39569 | 34003 ft | 391 kts | 283° |
| 2026-05-08 08:27 | 42.93978 | 27.10701 | 34209 ft | 388 kts | 283° |
| 2026-05-08 08:27 | 42.98553 | 26.81743 | 34024 ft | 394 kts | 283° |
| 2026-05-08 08:28 | 43.03058 | 26.52853 | 34124 ft | 384 kts | 283° |
| 2026-05-08 08:28 | 43.07470 | 26.23996 | 34089 ft | 391 kts | 283° |
| 2026-05-08 08:28 | 43.09651 | 26.09522 | 33982 ft | 392 kts | 282° |
| 2026-05-08 08:29 | 43.11812 | 25.95025 | 33969 ft | 388 kts | 282° |
| 2026-05-08 08:29 | 43.16091 | 25.66156 | 34141 ft | 385 kts | 283° |
| 2026-05-08 08:29 | 43.18453 | 25.51703 | 34327 ft | 385 kts | 283° |
| 2026-05-08 08:30 | 43.20762 | 25.37264 | 35375 ft | 388 kts | 282° |
| 2026-05-08 08:30 | 43.23038 | 25.22794 | 36076 ft | 397 kts | 282° |
| 2026-05-08 08:30 | 43.27731 | 24.92722 | 36064 ft | 401 kts | 281° |
| 2026-05-08 08:31 | 43.32339 | 24.62684 | 36127 ft | 405 kts | 281° |
| 2026-05-08 08:31 | 43.36837 | 24.32576 | 36014 ft | 406 kts | 280° |
| 2026-05-08 08:32 | 43.41323 | 24.02176 | 36166 ft | 404 kts | 280° |
| 2026-05-08 08:32 | 43.45753 | 23.71481 | 36119 ft | 411 kts | 280° |
| 2026-05-08 08:33 | 43.50119 | 23.40633 | 36122 ft | 410 kts | 279° |
| 2026-05-08 08:33 | 43.53199 | 23.25595 | 36092 ft | 414 kts | 298° |
| 2026-05-08 08:33 | 43.59280 | 23.12126 | 36103 ft | 413 kts | 298° |
| 2026-05-08 08:34 | 43.71246 | 22.84999 | 36109 ft | 414 kts | 298° |
| 2026-05-08 08:34 | 43.83151 | 22.57781 | 36104 ft | 413 kts | 298° |
| 2026-05-08 08:35 | 43.94782 | 22.30320 | 36100 ft | 412 kts | 295° |
| 2026-05-08 08:35 | 44.05541 | 22.02149 | 36097 ft | 413 kts | 295° |
| 2026-05-08 08:36 | 44.16317 | 21.73921 | 36102 ft | 413 kts | 295° |
| 2026-05-08 08:36 | 44.27047 | 21.45571 | 36101 ft | 413 kts | 295° |
| 2026-05-08 08:37 | 44.37668 | 21.17106 | 36096 ft | 413 kts | 294° |
| 2026-05-08 08:37 | 44.48233 | 20.88554 | 36094 ft | 413 kts | 294° |
| 2026-05-08 08:38 | 44.58735 | 20.59952 | 36100 ft | 413 kts | 293° |
| 2026-05-08 08:38 | 44.69127 | 20.31235 | 36096 ft | 412 kts | 293° |
| 2026-05-08 08:39 | 44.79434 | 20.02511 | 36090 ft | 411 kts | 293° |
| 2026-05-08 08:39 | 44.89666 | 19.73717 | 36093 ft | 411 kts | 292° |
| 2026-05-08 08:40 | 44.99802 | 19.44811 | 36095 ft | 411 kts | 292° |
| 2026-05-08 08:40 | 45.09867 | 19.15884 | 36091 ft | 409 kts | 292° |
| 2026-05-08 08:41 | 45.19388 | 18.86890 | 36093 ft | 408 kts | 290° |
| 2026-05-08 08:41 | 45.28748 | 18.57609 | 36090 ft | 407 kts | 290° |
| 2026-05-08 08:42 | 45.38005 | 18.28251 | 36105 ft | 407 kts | 290° |
| 2026-05-08 08:42 | 45.47190 | 17.98853 | 36120 ft | 406 kts | 290° |
| 2026-05-08 08:43 | 45.56267 | 17.69408 | 36112 ft | 405 kts | 289° |
| 2026-05-08 08:43 | 45.65276 | 17.39898 | 36113 ft | 405 kts | 289° |
| 2026-05-08 08:44 | 45.74189 | 17.10286 | 36109 ft | 405 kts | 289° |
| 2026-05-08 08:44 | 45.83055 | 16.80574 | 36111 ft | 406 kts | 289° |
| 2026-05-08 08:45 | 45.91843 | 16.50696 | 36112 ft | 407 kts | 289° |
| 2026-05-08 08:45 | 46.00574 | 16.20720 | 36125 ft | 406 kts | 288° |
| 2026-05-08 08:46 | 46.09207 | 15.90668 | 36112 ft | 406 kts | 288° |
| 2026-05-08 08:46 | 46.17533 | 15.60527 | 36087 ft | 401 kts | 279° |
| 2026-05-08 08:47 | 46.22518 | 15.29132 | 36101 ft | 402 kts | 279° |
| 2026-05-08 08:47 | 46.27495 | 14.97560 | 36101 ft | 404 kts | 279° |
| 2026-05-08 08:48 | 46.32390 | 14.65731 | 36107 ft | 407 kts | 279° |
| 2026-05-08 08:48 | 46.37242 | 14.33693 | 36123 ft | 407 kts | 279° |
| 2026-05-08 08:49 | 46.41992 | 14.01668 | 36100 ft | 406 kts | 279° |
| 2026-05-08 08:49 | 46.45239 | 13.71373 | 36113 ft | 400 kts | 278° |
| 2026-05-08 08:50 | 46.47379 | 13.59771 | 36106 ft | 400 kts | 282° |
| 2026-05-08 08:50 | 46.48829 | 13.52004 | 36100 ft | 398 kts | 282° |
| 2026-05-08 08:51 | 46.50271 | 13.44237 | 36099 ft | 399 kts | 282° |
| 2026-05-08 08:51 | 46.51697 | 13.36519 | 36102 ft | 400 kts | 282° |
| 2026-05-08 08:52 | 46.53135 | 13.28710 | 36101 ft | 401 kts | 282° |
| 2026-05-08 08:52 | 46.54559 | 13.20940 | 36105 ft | 401 kts | 282° |
| 2026-05-08 08:53 | 46.55974 | 13.13244 | 36107 ft | 401 kts | 282° |
| 2026-05-08 08:53 | 46.57415 | 13.05408 | 36107 ft | 401 kts | 282° |
| 2026-05-08 08:54 | 46.58848 | 12.97567 | 36109 ft | 402 kts | 282° |
| 2026-05-08 08:54 | 46.60309 | 12.89702 | 35747 ft | 411 kts | 285° |
| 2026-05-08 08:55 | 46.61266 | 12.85768 | 35200 ft | 413 kts | 286° |
| 2026-05-08 08:55 | 46.62280 | 12.81862 | 34650 ft | 413 kts | 287° |
| 2026-05-08 08:55 | 46.63325 | 12.77973 | 34102 ft | 413 kts | 287° |
| 2026-05-08 08:55 | 46.64383 | 12.74098 | 33553 ft | 411 kts | 287° |
| 2026-05-08 08:56 | 46.65435 | 12.70229 | 33001 ft | 411 kts | 287° |
| 2026-05-08 08:56 | 46.66475 | 12.66355 | 32452 ft | 413 kts | 287° |
| 2026-05-08 08:56 | 46.67510 | 12.62451 | 31900 ft | 414 kts | 287° |
| 2026-05-08 08:56 | 46.68542 | 12.58526 | 31344 ft | 416 kts | 287° |
| 2026-05-08 08:57 | 46.69576 | 12.54587 | 30791 ft | 417 kts | 287° |
| 2026-05-08 08:57 | 46.70587 | 12.50737 | 30241 ft | 415 kts | 287° |
| 2026-05-08 08:57 | 46.71626 | 12.46770 | 29685 ft | 412 kts | 287° |
| 2026-05-08 08:57 | 46.72640 | 12.42877 | 29137 ft | 410 kts | 287° |
| 2026-05-08 08:58 | 46.73644 | 12.39010 | 28585 ft | 407 kts | 287° |
| 2026-05-08 08:58 | 46.74646 | 12.35164 | 28034 ft | 404 kts | 287° |
| 2026-05-08 08:58 | 46.75641 | 12.31345 | 27482 ft | 402 kts | 287° |
| 2026-05-08 08:58 | 46.76625 | 12.27544 | 26928 ft | 400 kts | 287° |
| 2026-05-08 08:59 | 46.77586 | 12.23819 | 26392 ft | 397 kts | 287° |
| 2026-05-08 08:59 | 46.78554 | 12.20050 | 25842 ft | 395 kts | 288° |
| 2026-05-08 08:59 | 46.79519 | 12.16311 | 25291 ft | 393 kts | 288° |
| 2026-05-08 08:59 | 46.80485 | 12.12592 | 24739 ft | 391 kts | 288° |
| 2026-05-08 09:00 | 46.81445 | 12.08888 | 24186 ft | 389 kts | 288° |
| 2026-05-08 09:00 | 46.82396 | 12.05202 | 23634 ft | 387 kts | 289° |
| 2026-05-08 09:00 | 46.83322 | 12.01615 | 23098 ft | 386 kts | 288° |
| 2026-05-08 09:00 | 46.84284 | 11.97869 | 22533 ft | 384 kts | 288° |
| 2026-05-08 09:01 | 46.85216 | 11.94225 | 21984 ft | 383 kts | 288° |
| 2026-05-08 09:01 | 46.86140 | 11.90591 | 21425 ft | 380 kts | 288° |
| 2026-05-08 09:01 | 46.87058 | 11.86975 | 20875 ft | 379 kts | 289° |
| 2026-05-08 09:01 | 46.87974 | 11.83373 | 20322 ft | 377 kts | 289° |
| 2026-05-08 09:02 | 46.88883 | 11.79792 | 19772 ft | 375 kts | 289° |
| 2026-05-08 09:02 | 46.89776 | 11.76268 | 19222 ft | 374 kts | 289° |
| 2026-05-08 09:02 | 46.90689 | 11.72666 | 18666 ft | 373 kts | 289° |
| 2026-05-08 09:02 | 46.91589 | 11.69118 | 18112 ft | 372 kts | 289° |
| 2026-05-08 09:03 | 46.92486 | 11.65584 | 17555 ft | 369 kts | 289° |
| 2026-05-08 09:03 | 46.93376 | 11.62074 | 17008 ft | 366 kts | 289° |
| 2026-05-08 09:03 | 46.94255 | 11.58587 | 16464 ft | 364 kts | 289° |
| 2026-05-08 09:03 | 46.95125 | 11.55123 | 15908 ft | 361 kts | 289° |
| 2026-05-08 09:04 | 46.95986 | 11.51686 | 15365 ft | 358 kts | 289° |
| 2026-05-08 09:04 | 46.96840 | 11.48277 | 14824 ft | 355 kts | 289° |
| 2026-05-08 09:04 | 46.97685 | 11.44894 | 14274 ft | 353 kts | 289° |
| 2026-05-08 09:04 | 46.98515 | 11.41572 | 13737 ft | 351 kts | 289° |
| 2026-05-08 09:05 | 46.99350 | 11.38226 | 13192 ft | 348 kts | 289° |
| 2026-05-08 09:05 | 47.00178 | 11.34902 | 12655 ft | 346 kts | 289° |
| 2026-05-08 09:05 | 47.00998 | 11.31601 | 12100 ft | 344 kts | 289° |
| 2026-05-08 09:05 | 47.01813 | 11.28325 | 11664 ft | 338 kts | 289° |
| 2026-05-08 09:06 | 47.02606 | 11.25150 | 11639 ft | 321 kts | 289° |
| 2026-05-08 09:06 | 47.03347 | 11.22177 | 11704 ft | 305 kts | 289° |
| 2026-05-08 09:06 | 47.04065 | 11.19290 | 12189 ft | 306 kts | 288° |
| 2026-05-08 09:06 | 47.04802 | 11.16293 | 12661 ft | 318 kts | 288° |
| 2026-05-08 09:07 | 47.05566 | 11.13194 | 13153 ft | 327 kts | 289° |
| 2026-05-08 09:07 | 47.06343 | 11.10039 | 13641 ft | 332 kts | 289° |
| 2026-05-08 09:07 | 47.07129 | 11.06842 | 13950 ft | 335 kts | 289° |
| 2026-05-08 09:07 | 47.07920 | 11.03624 | 14010 ft | 335 kts | 288° |
| 2026-05-08 09:08 | 47.08709 | 11.00414 | 14014 ft | 335 kts | 288° |
| 2026-05-08 09:08 | 47.09234 | 10.98286 | 14018 ft | 334 kts | 288° |
| 2026-05-08 09:08 | 47.10025 | 10.95079 | 14015 ft | 334 kts | 288° |
| 2026-05-08 09:08 | 47.10813 | 10.91872 | 14016 ft | 334 kts | 288° |
| 2026-05-08 09:09 | 47.11608 | 10.88623 | 14017 ft | 334 kts | 288° |
| 2026-05-08 09:09 | 47.12387 | 10.85413 | 14025 ft | 334 kts | 288° |
| 2026-05-08 09:09 | 47.13061 | 10.82623 | 14018 ft | 334 kts | 288° |
| 2026-05-08 09:09 | 47.13838 | 10.79409 | 14023 ft | 334 kts | 288° |
| 2026-05-08 09:10 | 47.14616 | 10.76197 | 14024 ft | 334 kts | 288° |
| 2026-05-08 09:10 | 47.15389 | 10.73023 | 14021 ft | 322 kts | 288° |
| 2026-05-08 09:10 | 47.16214 | 10.70054 | 14021 ft | 307 kts | 296° |
| 2026-05-08 09:10 | 47.17339 | 10.67475 | 14022 ft | 294 kts | 307° |
| 2026-05-08 09:11 | 47.18712 | 10.65341 | 14025 ft | 282 kts | 316° |
| 2026-05-08 09:11 | 47.20266 | 10.63665 | 14024 ft | 272 kts | 326° |
| 2026-05-08 09:11 | 47.21878 | 10.62370 | 14023 ft | 268 kts | 329° |
| 2026-05-08 09:11 | 47.23598 | 10.61131 | 13674 ft | 273 kts | 340° |
| 2026-05-08 09:12 | 47.25477 | 10.60893 | 13475 ft | 274 kts | 7° |
| 2026-05-08 09:12 | 47.27233 | 10.61899 | 13311 ft | 271 kts | 34° |
| 2026-05-08 09:12 | 47.28492 | 10.63924 | 13084 ft | 270 kts | 62° |
| 2026-05-08 09:12 | 47.29054 | 10.66533 | 12903 ft | 267 kts | 84° |
| 2026-05-08 09:13 | 47.29189 | 10.69245 | 12843 ft | 266 kts | 86° |
| 2026-05-08 09:13 | 47.29321 | 10.71967 | 12768 ft | 266 kts | 86° |
| 2026-05-08 09:13 | 47.29459 | 10.74682 | 12721 ft | 266 kts | 86° |
| 2026-05-08 09:13 | 47.29600 | 10.77399 | 12662 ft | 267 kts | 86° |
| 2026-05-08 09:14 | 47.29739 | 10.80115 | 12607 ft | 266 kts | 86° |
| 2026-05-08 09:14 | 47.29878 | 10.82806 | 12571 ft | 259 kts | 86° |
| 2026-05-08 09:14 | 47.30014 | 10.85420 | 12538 ft | 254 kts | 86° |
| 2026-05-08 09:14 | 47.30144 | 10.87999 | 12469 ft | 252 kts | 86° |
| 2026-05-08 09:15 | 47.30267 | 10.90567 | 12421 ft | 251 kts | 86° |
| 2026-05-08 09:15 | 47.30389 | 10.93132 | 12389 ft | 251 kts | 86° |
| 2026-05-08 09:15 | 47.30510 | 10.95697 | 12352 ft | 251 kts | 86° |
| 2026-05-08 09:15 | 47.30631 | 10.98262 | 12295 ft | 251 kts | 86° |
| 2026-05-08 09:16 | 47.30753 | 11.00823 | 12247 ft | 250 kts | 86° |
| 2026-05-08 09:16 | 47.30877 | 11.03373 | 12211 ft | 250 kts | 86° |
| 2026-05-08 09:16 | 47.30982 | 11.05925 | 12081 ft | 251 kts | 92° |
| 2026-05-08 09:16 | 47.30646 | 11.08494 | 11436 ft | 262 kts | 114° |
| 2026-05-08 09:17 | 47.29887 | 11.10980 | 10745 ft | 270 kts | 117° |
| 2026-05-08 09:17 | 47.29103 | 11.13350 | 10093 ft | 276 kts | 117° |
| 2026-05-08 09:17 | 47.28252 | 11.15853 | 9673 ft | 271 kts | 117° |
| 2026-05-08 09:17 | 47.27351 | 11.18136 | 9240 ft | 265 kts | 132° |
| 2026-05-08 09:18 | 47.25890 | 11.19672 | 8822 ft | 257 kts | 161° |
| 2026-05-08 09:18 | 47.24166 | 11.20229 | 8428 ft | 251 kts | 171° |
| 2026-05-08 09:18 | 47.22460 | 11.20654 | 8009 ft | 247 kts | 163° |
| 2026-05-08 09:18 | 47.21022 | 11.21932 | 7605 ft | 242 kts | 131° |